Time;durP1;ratioP1;P1;durP2;ratioP2;P2;SDS_P1;SDS_P2;PMS_P1;PMS_P2;Temp;Humidity;BMP_temperature;BMP_pressure;BME280_temperature;BME280_humidity;BME280_pressure;Samples;Min_cycle;Max_cycle;Signal;HPM_P1;HPM_P2
2022/04/29 00:02:18;;;;;;;4.40;2.60;;;;;;;8.34;53.28;101259.88;1704890;82;21140;-69
2022/04/29 00:04:45;;;;;;;2.70;2.03;;;;;;;8.29;53.52;101254.67;1663686;84;21103;-70
2022/04/29 00:07:13;;;;;;;3.47;2.03;;;;;;;8.23;53.71;101257.44;1695297;83;21117;-69
2022/04/29 00:09:41;;;;;;;2.13;1.93;;;;;;;8.17;54.07;101255.36;1679731;85;21552;-69
2022/04/29 00:12:09;;;;;;;4.50;2.58;;;;;;;8.09;54.41;101249.98;1664618;84;21047;-69
2022/04/29 00:14:37;;;;;;;3.20;2.10;;;;;;;7.99;54.53;101251.37;1652830;86;22232;-69
2022/04/29 00:17:05;;;;;;;4.37;2.83;;;;;;;7.88;55.03;101257.70;1670619;85;21062;-69
2022/04/29 00:19:33;;;;;;;2.60;1.97;;;;;;;7.77;55.41;101256.08;1642773;86;21057;-69
2022/04/29 00:22:01;;;;;;;5.03;2.70;;;;;;;7.68;56.17;101258.28;1657089;86;21644;-69
2022/04/29 00:24:30;;;;;;;4.50;2.83;;;;;;;7.57;56.56;101256.68;1637248;86;21209;-69
2022/04/29 00:26:58;;;;;;;3.23;2.77;;;;;;;7.50;56.72;101264.05;1687689;84;21041;-70
2022/04/29 00:29:25;;;;;;;4.20;3.20;;;;;;;7.43;57.20;101257.64;1670855;84;21078;-69
2022/04/29 00:31:52;;;;;;;4.93;2.77;;;;;;;7.39;57.33;101263.22;1668914;84;21168;-70
2022/04/29 00:34:20;;;;;;;3.83;3.47;;;;;;;7.34;57.59;101257.52;1659170;84;21119;-69
2022/04/29 00:36:47;;;;;;;;;;;;;;;7.32;57.63;101258.64;1658392;84;21577;-70
2022/04/29 00:39:13;;;;;;;3.00;2.57;;;;;;;7.30;57.71;101254.80;1666425;84;20255;-71
2022/04/29 00:41:41;;;;;;;4.27;3.13;;;;;;;6.87;57.98;101189.90;1626930;86;21120;-69
2022/04/29 00:44:10;;;;;;;4.70;3.23;;;;;;;7.23;58.28;101251.55;1627068;86;21185;-69
2022/04/29 00:46:42;;;;;;;3.70;3.10;;;;;;;7.21;58.41;101251.69;1646049;86;21017;-69
2022/04/29 00:49:13;;;;;;;4.93;4.10;;;;;;;7.19;58.85;101252.33;1645597;85;21108;-69
2022/04/29 00:51:45;;;;;;;3.73;3.40;;;;;;;7.14;59.35;101251.45;1639516;86;21132;-69
2022/04/29 00:54:25;;;;;;;4.27;3.83;;;;;;;7.07;59.53;101251.66;1642411;86;21094;-71
2022/04/29 00:56:55;;;;;;;6.63;3.97;;;;;;;7.01;59.89;101250.92;1642286;85;21063;-69
2022/04/29 00:59:33;;;;;;;5.53;4.63;;;;;;;6.94;60.40;101249.31;1643714;86;21032;-68
2022/04/29 01:02:03;;;;;;;7.17;4.67;;;;;;;6.88;60.60;101257.84;1643365;85;21364;-67
2022/04/29 01:04:48;;;;;;;5.93;4.30;;;;;;;6.80;60.96;101253.25;1619662;88;21095;-70
2022/04/29 01:07:15;;;;;;;8.00;4.77;;;;;;;6.77;60.95;101245.57;1646503;86;21584;-70
2022/04/29 01:09:42;;;;;;;4.70;4.07;;;;;;;6.76;60.26;101247.03;1619644;87;21107;-69
2022/04/29 01:12:10;;;;;;;4.43;4.03;;;;;;;6.79;59.87;101240.96;1615845;87;21064;-69
2022/04/29 01:14:38;;;;;;;6.33;4.57;;;;;;;6.86;59.25;101237.77;1601727;88;21069;-70
2022/04/29 01:17:04;;;;;;;5.95;4.55;;;;;;;6.92;59.29;101238.52;1645362;85;21089;-69
2022/04/29 01:19:31;;;;;;;;;;;;;;;6.95;59.58;101235.09;1631619;88;21097;-69
2022/04/29 01:22:00;;;;;;;5.25;4.17;;;;;;;6.95;60.06;101232.45;1629553;87;20112;-69
2022/04/29 01:24:28;;;;;;;6.00;4.77;;;;;;;6.89;60.77;101241.44;1622237;86;21231;-70
2022/04/29 01:26:54;;;;;;;6.12;4.62;;;;;;;6.83;61.11;101242.34;1626624;86;21042;-69
2022/04/29 01:29:23;;;;;;;9.17;5.30;;;;;;;6.78;61.58;101241.95;1624496;87;21049;-69
2022/04/29 01:31:52;;;;;;;8.53;4.90;;;;;;;6.68;61.82;101250.88;1624838;86;21026;-69
2022/04/29 01:34:20;;;;;;;5.23;4.20;;;;;;;6.58;62.23;101246.42;1627527;87;21600;-70
2022/04/29 01:36:48;;;;;;;5.13;4.07;;;;;;;6.52;62.93;101243.52;1572212;89;21093;-71
2022/04/29 01:39:14;;;;;;;;;;;;;;;6.43;63.38;101246.00;1617883;87;21645;-70
2022/04/29 01:41:41;;;;;;;7.00;4.80;;;;;;;6.37;63.75;101239.95;1615577;87;20223;-70
2022/04/29 01:44:08;;;;;;;5.17;4.67;;;;;;;6.27;64.11;101248.35;1618837;83;21058;-69
2022/04/29 01:46:35;;;;;;;;;;;;;;;6.21;64.38;101242.30;1702466;83;21037;-70
2022/04/29 01:49:13;;;;;;;6.03;4.93;;;;;;;6.19;64.45;101238.95;1691114;83;20545;-68
2022/04/29 01:51:43;;;;;;;5.93;5.27;;;;;;;6.10;64.56;101242.41;1693432;83;21062;-68
2022/04/29 01:54:11;;;;;;;5.20;4.70;;;;;;;6.08;64.66;101239.07;1674439;83;21537;-70
2022/04/29 01:56:40;;;;;;;7.80;5.27;;;;;;;6.07;64.76;101250.16;1666568;83;21101;-70
2022/04/29 01:59:08;;;;;;;8.00;4.87;;;;;;;6.04;64.86;101255.21;1656010;85;21058;-69
2022/04/29 02:01:37;;;;;;;5.00;4.50;;;;;;;6.04;64.88;101256.53;1658683;85;21026;-69
2022/04/29 02:04:05;;;;;;;6.90;5.53;;;;;;;6.01;65.12;101252.03;1662619;85;21112;-70
2022/04/29 02:06:31;;;;;;;;;;;;;;;5.95;65.18;101256.05;1650188;86;21076;-70
2022/04/29 02:08:58;;;;;;;5.70;5.07;;;;;;;5.93;65.50;101252.65;1659014;85;20435;-70
2022/04/29 02:11:26;;;;;;;7.80;6.33;;;;;;;5.87;65.70;101254.52;1626513;86;21104;-69
2022/04/29 02:14:01;;;;;;;8.07;5.73;;;;;;;5.89;65.67;101252.58;1614276;88;21129;-70
2022/04/29 02:16:32;;;;;;;7.40;5.10;;;;;;;5.89;65.45;101253.06;1612350;88;21062;-70
2022/04/29 02:19:02;;;;;;;9.50;6.17;;;;;;;5.91;65.65;101252.44;1620639;87;21747;-70
2022/04/29 02:21:29;;;;;;;7.37;5.27;;;;;;;5.95;65.61;101252.09;1620787;88;21033;-69
2022/04/29 02:23:55;;;;;;;11.63;6.62;;;;;;;5.99;65.59;101260.56;1636227;86;20995;-70
2022/04/29 02:26:21;;;;;;;10.58;6.47;;;;;;;6.02;65.66;101253.19;1673768;85;21094;-70
2022/04/29 02:28:50;;;;;;;8.27;5.93;;;;;;;6.04;65.78;101249.09;1679672;84;21057;-69
2022/04/29 02:31:18;;;;;;;9.73;7.13;;;;;;;6.02;65.89;101253.69;1680153;84;21057;-68
2022/04/29 02:33:45;;;;;;;6.93;6.23;;;;;;;5.98;66.07;101255.77;1671606;84;21071;-68
2022/04/29 02:36:12;;;;;;;8.40;6.85;;;;;;;5.95;66.31;101260.45;1673722;84;21051;-68
2022/04/29 02:38:39;;;;;;;9.53;7.20;;;;;;;5.91;66.45;101260.38;1679726;84;21114;-70
2022/04/29 02:41:05;;;;;;;9.60;7.22;;;;;;;5.85;66.60;101263.08;1679452;84;21088;-68
2022/04/29 02:43:34;;;;;;;9.78;7.40;;;;;;;5.80;66.87;101270.11;1680456;84;21102;-70
2022/04/29 02:46:01;;;;;;;9.33;6.77;;;;;;;5.74;67.30;101270.63;1680003;84;21050;-69
2022/04/29 02:48:27;;;;;;;9.88;6.33;;;;;;;5.69;67.47;101269.36;1659375;84;21095;-67
2022/04/29 02:50:55;;;;;;;7.53;6.13;;;;;;;5.63;67.54;101270.27;1680288;84;21114;-69
2022/04/29 02:53:22;;;;;;;7.00;5.77;;;;;;;5.59;67.82;101276.77;1680221;84;21546;-70
2022/04/29 02:55:48;;;;;;;;;;;;;;;5.58;68.24;101284.86;1662541;85;20972;-69
2022/04/29 02:58:16;;;;;;;;;;;;;;;5.56;68.55;101281.02;1683790;83;20136;-70
2022/04/29 03:00:44;;;;;;;10.55;6.55;;;;;;;5.50;69.23;101279.38;1680334;84;20147;-69
2022/04/29 03:03:11;;;;;;;7.17;5.57;;;;;;;5.44;69.37;101280.73;1679737;84;21063;-69
2022/04/29 03:05:40;;;;;;;8.00;6.10;;;;;;;5.53;69.71;101280.44;1680076;84;21127;-68
2022/04/29 03:08:08;;;;;;;8.17;5.73;;;;;;;5.80;69.28;101281.16;1679941;84;21079;-71
2022/04/29 03:10:36;;;;;;;8.50;5.87;;;;;;;6.17;68.40;101281.93;1687514;84;21658;-69
2022/04/29 03:13:03;;;;;;;8.47;6.33;;;;;;;6.62;67.11;101288.05;1694227;82;21576;-70
2022/04/29 03:15:33;;;;;;;8.40;6.37;;;;;;;7.06;65.45;101291.07;1690450;82;21059;-71
2022/04/29 03:18:20;;;;;;;9.30;6.10;;;;;;;7.43;63.93;101291.63;1707232;82;21055;-71
2022/04/29 03:20:53;;;;;;;8.73;5.60;;;;;;;7.89;63.18;101292.58;1706428;82;21133;-71
2022/04/29 03:23:22;;;;;;;8.27;5.27;;;;;;;8.38;61.54;101292.27;1708495;82;21030;-71
2022/04/29 03:25:54;;;;;;;18.17;7.33;;;;;;;8.76;58.53;101297.00;1708140;82;21018;-72
2022/04/29 03:28:21;;;;;;;5.90;4.43;;;;;;;8.94;58.02;101294.30;1707866;82;21558;-70
2022/04/29 03:30:49;;;;;;;4.77;4.37;;;;;;;9.15;57.29;101299.27;1692867;82;21383;-68
2022/04/29 03:33:15;;;;;;;4.80;3.90;;;;;;;9.36;56.04;101309.55;1708119;82;20971;-70
2022/04/29 03:35:47;;;;;;;4.50;4.10;;;;;;;9.47;54.71;101302.64;1707166;82;21645;-70
2022/04/29 03:38:18;;;;;;;3.93;3.60;;;;;;;9.57;54.24;101301.70;1707738;82;21078;-70
2022/04/29 03:40:45;;;;;;;4.13;3.33;;;;;;;9.70;53.85;101296.77;1687924;82;21022;-71
2022/04/29 03:43:12;;;;;;;8.37;3.70;;;;;;;9.89;53.25;101301.05;1707049;82;21083;-72
2022/04/29 03:45:41;;;;;;;4.13;3.43;;;;;;;10.12;52.75;101303.95;1708083;82;21053;-70
2022/04/29 03:48:11;;;;;;;5.23;3.57;;;;;;;10.33;52.09;101303.03;1706893;82;21055;-70
2022/04/29 03:50:45;;;;;;;4.70;4.20;;;;;;;10.68;51.50;101307.77;1706578;82;21069;-71
2022/04/29 03:53:13;;;;;;;4.50;3.97;;;;;;;11.17;49.95;101309.60;1690014;82;21041;-72
2022/04/29 03:55:43;;;;;;;5.07;3.87;;;;;;;11.68;49.53;101308.00;1686838;82;21501;-72
2022/04/29 03:58:10;;;;;;;4.03;3.37;;;;;;;12.22;47.80;101312.63;1701764;82;21618;-70
2022/04/29 04:00:40;;;;;;;2.75;2.55;;;;;;;12.70;46.02;101310.66;1694178;82;21014;-71
2022/04/29 04:03:07;;;;;;;3.37;2.42;;;;;;;12.98;44.34;101309.61;1708139;82;21018;-70
2022/04/29 04:05:36;;;;;;;2.72;2.52;;;;;;;13.05;43.74;101314.57;1702008;82;21066;-72
2022/04/29 04:08:05;;;;;;;2.95;2.62;;;;;;;13.13;43.32;101309.64;1698289;82;21135;-71
2022/04/29 04:10:43;;;;;;;3.65;3.02;;;;;;;13.14;43.14;101318.50;1692904;82;21117;-71
2022/04/29 04:13:13;;;;;;;4.05;3.15;;;;;;;13.36;43.15;101316.31;1708723;82;21272;-71
2022/04/29 04:15:51;;;;;;;3.17;2.87;;;;;;;13.83;42.70;101319.66;1708086;82;21059;-72
2022/04/29 04:18:18;;;;;;;6.72;2.90;;;;;;;14.35;41.40;101315.13;1706660;82;21160;-71
2022/04/29 04:20:48;;;;;;;4.65;2.27;;;;;;;14.66;40.50;101318.07;1693454;82;21018;-72
2022/04/29 04:23:16;;;;;;;2.77;2.58;;;;;;;14.96;40.02;101313.39;1706999;82;21487;-71
2022/04/29 04:25:44;;;;;;;3.67;3.37;;;;;;;15.34;39.59;101311.20;1708180;82;21047;-72
2022/04/29 04:28:14;;;;;;;2.83;2.62;;;;;;;15.86;38.20;101309.56;1687292;82;21091;-72
2022/04/29 04:30:48;;;;;;;3.55;2.80;;;;;;;16.36;37.03;101307.48;1699439;82;21546;-71
2022/04/29 04:33:16;;;;;;;2.77;2.58;;;;;;;16.78;35.97;101305.48;1708639;82;21132;-71
2022/04/29 04:35:45;;;;;;;2.80;2.55;;;;;;;17.09;35.13;101308.95;1708296;82;21522;-72
2022/04/29 04:38:13;;;;;;;5.17;3.22;;;;;;;17.37;34.32;101310.59;1698824;82;21487;-72
2022/04/29 04:40:42;;;;;;;3.15;2.62;;;;;;;17.58;34.05;101308.69;1701506;82;21147;-72
2022/04/29 04:43:11;;;;;;;5.25;3.30;;;;;;;17.88;33.56;101311.73;1712613;82;21037;-72
2022/04/29 04:45:39;;;;;;;2.67;2.45;;;;;;;18.12;33.46;101314.74;1717015;82;21018;-71
2022/04/29 04:48:26;;;;;;;4.67;3.20;;;;;;;18.29;33.51;101306.48;1697410;83;21532;-72
2022/04/29 04:51:01;;;;;;;3.30;2.15;;;;;;;18.47;32.32;101308.44;1708788;83;21062;-72
2022/04/29 04:53:26;;;;;;;2.30;2.10;;;;;;;18.68;31.50;101305.91;1689050;82;21520;-72
2022/04/29 04:55:54;;;;;;;4.55;2.20;;;;;;;19.17;30.34;101300.23;1708046;82;21043;-71
2022/04/29 04:58:21;;;;;;;3.27;2.47;;;;;;;19.17;30.34;101300.23;1691663;82;21521;-73
2022/04/29 05:00:50;;;;;;;3.00;2.70;;;;;;;19.19;30.44;101294.11;1688959;82;21522;-72
2022/04/29 05:03:22;;;;;;;3.12;2.77;;;;;;;19.31;29.87;101301.46;1703494;82;21065;-72
2022/04/29 05:06:07;;;;;;;2.50;2.30;;;;;;;19.50;29.87;101302.34;1708081;82;22177;-72
2022/04/29 05:08:34;;;;;;;4.33;2.15;;;;;;;19.75;29.12;101300.94;1692963;84;21565;-71
2022/04/29 05:11:03;;;;;;;4.25;2.30;;;;;;;19.80;29.07;101303.27;1705961;82;21033;-72
2022/04/29 05:13:30;;;;;;;2.90;2.17;;;;;;;19.86;29.02;101305.59;1708105;82;21455;-72
2022/04/29 05:15:59;;;;;;;2.15;1.57;;;;;;;20.00;28.38;101303.03;1671254;85;22238;-72
2022/04/29 05:18:27;;;;;;;4.40;2.35;;;;;;;20.14;28.15;101301.52;1704633;82;21038;-71
2022/04/29 05:21:06;;;;;;;4.92;2.10;;;;;;;20.26;29.02;101307.78;1706949;82;21024;-71
2022/04/29 05:23:36;;;;;;;4.35;1.55;;;;;;;20.34;27.58;101306.12;1708294;82;21540;-73
2022/04/29 05:26:10;;;;;;;2.83;1.90;;;;;;;20.35;27.52;101308.30;1660701;82;21079;-73
2022/04/29 05:28:39;;;;;;;1.90;1.57;;;;;;;20.27;27.77;101311.31;1704214;82;22129;-72
2022/04/29 05:31:24;;;;;;;2.40;1.57;;;;;;;20.03;27.57;101314.73;1682749;82;21058;-72
2022/04/29 05:33:55;;;;;;;2.05;1.70;;;;;;;19.50;28.11;101312.63;1703778;82;21478;-74
2022/04/29 05:36:40;;;;;;;3.50;1.52;;;;;;;19.01;28.43;101313.80;1708757;82;21039;-71
2022/04/29 05:42:14;;;;;;;4.05;1.85;;;;;;;18.39;29.66;101313.58;1707133;84;21073;-72
2022/04/29 05:44:41;;;;;;;1.75;1.65;;;;;;;18.44;29.81;101313.76;1708378;82;21009;-74
2022/04/29 05:47:09;;;;;;;2.52;2.30;;;;;;;18.58;29.81;101317.73;1707367;82;21108;-72
2022/04/29 05:49:38;;;;;;;0.95;0.90;;;;;;;18.84;30.20;101309.46;1707891;82;21039;-73
2022/04/29 05:52:07;;;;;;;1.95;1.55;;;;;;;19.07;27.80;101313.44;1706863;82;21054;-74
2022/04/29 05:54:38;;;;;;;2.20;1.02;;;;;;;19.24;27.40;101316.41;1707098;82;21074;-74
2022/04/29 05:57:05;;;;;;;1.65;1.05;;;;;;;19.32;27.38;101316.11;1705509;82;21087;-72
2022/04/29 05:59:32;;;;;;;2.00;1.22;;;;;;;19.28;27.80;101319.50;1707818;82;21011;-73
2022/04/29 06:02:14;;;;;;;2.02;1.40;;;;;;;19.12;28.06;101318.16;1703415;82;21036;-73
2022/04/29 06:04:46;;;;;;;1.85;1.75;;;;;;;18.96;28.47;101318.20;1694215;82;21112;-73
2022/04/29 06:07:12;;;;;;;;;;;;;;;18.71;29.04;101318.98;1709598;82;21094;-73
2022/04/29 06:09:42;;;;;;;3.08;2.10;;;;;;;18.34;28.27;101317.97;1682180;82;20465;-73
2022/04/29 06:12:10;;;;;;;3.33;2.02;;;;;;;17.86;29.22;101319.22;1705065;82;21549;-72
2022/04/29 06:14:38;;;;;;;6.20;2.50;;;;;;;17.71;29.72;101326.17;1705473;82;21027;-73
2022/04/29 06:17:13;;;;;;;13.32;5.90;;;;;;;17.83;29.85;101328.52;1698315;83;21565;-73
2022/04/29 06:19:59;;;;;;;15.70;4.92;;;;;;;18.19;28.82;101322.29;1706629;82;21041;-73
2022/04/29 06:22:27;;;;;;;16.62;6.25;;;;;;;18.39;29.21;101324.38;1695237;82;21032;-71
2022/04/29 06:24:54;;;;;;;21.85;6.58;;;;;;;18.28;28.51;101325.88;1701289;82;21096;-73
2022/04/29 06:27:22;;;;;;;16.25;5.22;;;;;;;17.96;29.23;101330.38;1700065;82;21047;-73
2022/04/29 06:29:48;;;;;;;13.95;5.53;;;;;;;17.78;29.78;101332.39;1699773;82;21852;-72
2022/04/29 06:32:16;;;;;;;20.10;6.42;;;;;;;17.83;30.19;101331.73;1688043;84;21033;-73
2022/04/29 06:34:51;;;;;;;14.45;4.53;;;;;;;17.93;30.39;101331.31;1705519;82;21072;-74
2022/04/29 06:37:20;;;;;;;7.35;2.80;;;;;;;18.08;30.15;101338.13;1708567;82;22091;-72
2022/04/29 06:39:46;;;;;;;4.17;1.32;;;;;;;18.41;29.40;101339.00;1708129;82;21059;-72
2022/04/29 06:42:45;;;;;;;2.37;1.22;;;;;;;18.72;28.28;101336.00;1706689;82;21027;-75
2022/04/29 06:45:31;;;;;;;2.37;1.50;;;;;;;18.79;27.98;101332.74;1679327;82;21059;-71
2022/04/29 06:48:17;;;;;;;3.72;1.60;;;;;;;18.49;28.45;101284.22;1676236;84;21111;-74
2022/04/29 06:50:54;;;;;;;2.42;1.45;;;;;;;18.76;27.63;101340.77;1644319;86;21037;-74
2022/04/29 06:53:23;;;;;;;4.45;1.57;;;;;;;18.61;28.37;101338.87;1603098;88;21089;-73
2022/04/29 06:55:51;;;;;;;3.95;1.17;;;;;;;18.42;28.22;101339.30;1630366;87;21100;-74
2022/04/29 06:58:18;;;;;;;5.92;1.30;;;;;;;18.39;28.24;101339.22;1705431;82;21048;-71
2022/04/29 07:00:44;;;;;;;3.10;1.37;;;;;;;18.48;28.25;101340.62;1726396;82;21016;-73
2022/04/29 07:03:11;;;;;;;2.05;1.42;;;;;;;18.55;28.33;101338.39;1726567;82;21058;-73
2022/04/29 07:05:39;;;;;;;1.57;1.17;;;;;;;18.57;28.52;101339.86;1736996;82;21092;-73
2022/04/29 07:08:09;;;;;;;3.00;0.98;;;;;;;18.74;28.37;101333.41;1732099;82;21034;-71
2022/04/29 07:10:56;;;;;;;1.92;1.35;;;;;;;19.03;27.74;101329.80;1732616;82;21024;-72
2022/04/29 07:13:43;;;;;;;3.50;1.02;;;;;;;19.13;27.64;101336.87;1699189;82;21026;-72
2022/04/29 07:16:10;;;;;;;1.65;1.25;;;;;;;18.98;27.88;101341.77;1705990;82;21100;-71
2022/04/29 07:18:44;;;;;;;3.35;1.25;;;;;;;18.76;27.74;101338.57;1707670;82;21081;-72
2022/04/29 07:21:12;;;;;;;3.17;0.93;;;;;;;18.57;28.04;101328.20;1725618;83;21045;-72
2022/04/29 07:23:39;;;;;;;4.90;0.98;;;;;;;18.40;27.97;101326.04;1736163;82;21044;-73
2022/04/29 07:26:07;;;;;;;1.98;0.90;;;;;;;18.20;28.00;101326.66;1733693;82;22135;-72
2022/04/29 07:28:33;;;;;;;1.72;0.80;;;;;;;18.05;28.23;101327.75;1732938;82;21033;-72
2022/04/29 07:31:01;;;;;;;5.12;1.10;;;;;;;17.92;28.40;101330.50;1734466;82;21033;-69
2022/04/29 07:33:42;;;;;;;2.70;0.72;;;;;;;17.80;28.06;101332.15;1694779;82;21080;-72
2022/04/29 07:41:59;;;;;;;2.17;0.68;;;;;;;17.02;29.34;101329.66;1717268;82;21022;-71
2022/04/29 07:44:27;;;;;;;2.42;0.78;;;;;;;17.02;29.34;101329.66;1700644;82;20977;-72
2022/04/29 07:46:55;;;;;;;0.62;0.60;;;;;;;17.06;29.39;101324.17;1706602;84;21128;-74
2022/04/29 07:49:35;;;;;;;2.08;1.00;;;;;;;17.06;29.39;101324.17;1705099;84;21088;-72
2022/04/29 07:52:04;;;;;;;2.35;0.95;;;;;;;17.06;29.32;101322.00;1706116;84;21545;-72
2022/04/29 07:54:32;;;;;;;1.27;0.57;;;;;;;17.05;29.20;101321.70;1681578;84;21067;-72
2022/04/29 07:56:58;;;;;;;5.20;1.30;;;;;;;17.05;29.20;101321.70;1649231;85;21137;-72
2022/04/29 07:59:26;;;;;;;3.30;1.05;;;;;;;17.10;28.78;101324.58;1635103;85;21071;-72
2022/04/29 08:01:56;;;;;;;0.98;0.57;;;;;;;17.17;28.96;101318.68;1633262;85;20987;-72
2022/04/29 08:04:22;;;;;;;2.80;1.20;;;;;;;16.98;29.67;101308.75;1715606;82;21117;-71
2022/04/29 08:06:50;;;;;;;3.00;1.15;;;;;;;16.98;29.67;101308.75;1716984;82;21091;-71
2022/04/29 08:09:16;;;;;;;1.17;0.50;;;;;;;16.89;29.73;101310.81;1708709;82;21050;-71
2022/04/29 08:11:42;;;;;;;;;;;;;;;16.89;29.73;101310.81;1690948;84;21134;-71
2022/04/29 08:14:31;;;;;;;4.10;0.88;;;;;;;16.91;29.84;101309.59;1707013;82;20181;-71
2022/04/29 08:17:13;;;;;;;2.30;0.70;;;;;;;16.84;30.39;101311.44;1713942;82;21624;-72
2022/04/29 08:19:45;;;;;;;2.45;0.40;;;;;;;16.91;29.93;101308.73;1687574;82;21118;-71
2022/04/29 08:22:20;;;;;;;1.70;0.45;;;;;;;16.82;28.84;101299.17;1650048;85;21052;-72
2022/04/29 08:24:50;;;;;;;1.62;1.17;;;;;;;16.72;28.65;101294.20;1649524;85;21139;-72
2022/04/29 08:27:18;;;;;;;0.65;0.42;;;;;;;16.65;28.86;101298.73;1649228;85;21127;-71
2022/04/29 08:29:47;;;;;;;3.58;0.20;;;;;;;16.55;29.20;101277.61;1650670;85;21620;-71
2022/04/29 08:32:14;;;;;;;;;;;;;;;16.50;29.15;101295.73;1712959;82;21540;-73
2022/04/29 08:34:43;;;;;;;0.57;0.33;;;;;;;16.47;29.17;101296.12;1709358;82;20165;-71
2022/04/29 08:37:11;;;;;;;1.45;0.30;;;;;;;16.43;29.18;101290.02;1713305;82;21038;-73
2022/04/29 08:39:39;;;;;;;2.00;0.53;;;;;;;16.53;29.22;101285.88;1716920;82;21565;-72
2022/04/29 08:42:06;;;;;;;3.60;0.88;;;;;;;16.64;29.26;101285.80;1694135;83;21602;-72
2022/04/29 08:44:35;;;;;;;3.12;0.72;;;;;;;16.75;29.03;101284.37;1699723;82;21053;-71
2022/04/29 08:47:10;;;;;;;1.30;0.53;;;;;;;16.86;28.73;101274.36;1705345;83;21101;-71
2022/04/29 08:49:39;;;;;;;0.33;0.20;;;;;;;16.97;29.05;101274.77;1714186;82;21050;-72
2022/04/29 08:52:09;;;;;;;0.30;0.23;;;;;;;17.01;28.78;101275.50;1652239;85;21373;-72
2022/04/29 09:00:10;;;;;;;3.62;0.65;;;;;;;16.64;29.53;101271.00;1717647;82;22216;-73
2022/04/29 09:02:39;;;;;;;2.27;0.72;;;;;;;16.60;29.52;101263.55;1716209;82;21556;-73
2022/04/29 09:05:11;;;;;;;1.55;0.37;;;;;;;16.61;29.71;101259.81;1655793;84;21125;-72
2022/04/29 09:08:01;;;;;;;1.87;0.70;;;;;;;16.60;30.03;101262.20;1711141;82;21054;-73
2022/04/29 09:10:34;;;;;;;3.60;0.62;;;;;;;16.60;29.83;101252.27;1709382;82;21620;-74
2022/04/29 09:13:14;;;;;;;3.15;0.78;;;;;;;16.58;29.96;101259.72;1716154;82;21021;-71
2022/04/29 09:16:05;;;;;;;1.45;0.53;;;;;;;16.59;30.00;101261.36;1708706;82;21069;-72
2022/04/29 09:18:48;;;;;;;3.00;0.70;;;;;;;16.59;29.96;101260.02;1649300;85;21095;-72
2022/04/29 09:21:22;;;;;;;1.25;0.68;;;;;;;16.60;30.14;101253.61;1649315;85;21519;-72
2022/04/29 09:23:56;;;;;;;1.57;0.60;;;;;;;16.62;30.20;101257.45;1649136;85;21673;-70
2022/04/29 09:26:41;;;;;;;2.05;0.57;;;;;;;16.56;30.34;101259.09;1650435;85;21307;-72
2022/04/29 09:29:28;;;;;;;2.12;0.33;;;;;;;16.46;30.70;101254.62;1649457;85;21072;-72
2022/04/29 09:32:13;;;;;;;2.65;0.72;;;;;;;16.45;30.66;101259.17;1649552;85;21157;-73
2022/04/29 09:34:53;;;;;;;0.82;0.70;;;;;;;16.58;30.32;101252.98;1717651;82;21153;-72
2022/04/29 09:37:30;;;;;;;2.22;0.60;;;;;;;16.69;29.92;101252.91;1717182;82;21348;-72
2022/04/29 09:40:02;;;;;;;3.60;0.65;;;;;;;16.71;29.91;101256.21;1716503;82;21573;-72
2022/04/29 09:42:42;;;;;;;2.55;0.78;;;;;;;16.71;30.02;101250.83;1639643;86;22301;-69
2022/04/29 09:45:23;;;;;;;1.40;1.30;;;;;;;16.75;30.47;101257.45;1640924;86;21126;-72
2022/04/29 09:48:00;;;;;;;3.83;1.57;;;;;;;16.80;30.04;101247.39;1706040;82;21023;-72
2022/04/29 09:50:50;;;;;;;4.37;0.90;;;;;;;16.85;30.04;101248.98;1690802;82;21065;-73
2022/04/29 09:53:23;;;;;;;0.98;0.85;;;;;;;16.91;30.11;101247.65;1648119;86;21051;-71
2022/04/29 09:56:09;;;;;;;2.45;0.72;;;;;;;16.98;30.12;101246.28;1691266;82;21125;-70
2022/04/29 09:58:36;;;;;;;1.62;0.40;;;;;;;17.00;29.73;101246.08;1710676;82;21032;-72
2022/04/29 10:01:04;;;;;;;1.80;0.45;;;;;;;16.99;29.84;101243.06;1730196;82;21606;-72
2022/04/29 10:03:33;;;;;;;4.50;0.72;;;;;;;16.93;29.89;101240.19;1697852;82;20978;-72
2022/04/29 10:06:01;;;;;;;1.45;0.70;;;;;;;16.84;30.03;101240.09;1695635;82;21034;-72
2022/04/29 10:08:31;;;;;;;1.32;0.72;;;;;;;16.81;30.32;101245.84;1709954;82;21044;-73
2022/04/29 10:11:00;;;;;;;2.90;1.02;;;;;;;16.80;30.29;101245.55;1703000;82;21323;-71
2022/04/29 10:13:27;;;;;;;2.92;1.60;;;;;;;16.46;30.11;101189.54;1710034;82;21563;-70
2022/04/29 10:16:00;;;;;;;3.67;1.42;;;;;;;16.71;30.24;101236.84;1700751;82;21048;-72
2022/04/29 10:21:33;;;;;;;5.83;2.47;;;;;;;16.66;31.34;101235.80;1650320;85;21070;-72
2022/04/29 10:23:59;;;;;;;5.12;1.52;;;;;;;16.72;31.48;101233.09;1686254;82;21006;-72
2022/04/29 10:26:26;;;;;;;4.37;2.02;;;;;;;16.80;31.58;101233.93;1655905;84;21080;-72
2022/04/29 10:28:53;;;;;;;2.98;2.60;;;;;;;16.91;31.39;101242.27;1685824;82;21089;-71
2022/04/29 10:31:21;;;;;;;5.45;2.70;;;;;;;16.96;31.22;101238.94;1664180;84;21003;-72
2022/04/29 10:33:48;;;;;;;8.10;2.30;;;;;;;16.93;31.46;101233.95;1711320;82;21005;-73
2022/04/29 10:36:20;;;;;;;2.40;1.67;;;;;;;16.87;31.51;101237.48;1694343;82;21026;-72
2022/04/29 10:38:46;;;;;;;6.97;2.25;;;;;;;16.83;31.69;101238.42;1669631;84;21092;-72
2022/04/29 10:41:17;;;;;;;3.37;2.33;;;;;;;16.83;31.76;101231.69;1642521;86;21770;-72
2022/04/29 10:43:54;;;;;;;3.50;1.65;;;;;;;16.78;31.59;101234.66;1700252;82;21018;-72
2022/04/29 10:46:36;;;;;;;1.80;1.37;;;;;;;16.70;31.35;101227.63;1706882;82;21061;-71
2022/04/29 10:49:30;;;;;;;2.60;1.62;;;;;;;16.51;31.69;101227.41;1653449;85;21157;-72
2022/04/29 10:52:28;;;;;;;3.77;1.37;;;;;;;16.41;31.95;101224.30;1702988;82;21089;-71
2022/04/29 10:55:16;;;;;;;1.50;0.75;;;;;;;16.39;31.79;101225.02;1708217;82;21402;-70
2022/04/29 10:57:50;;;;;;;3.15;1.20;;;;;;;16.38;31.15;101227.39;1707548;82;21074;-71
2022/04/29 11:00:23;;;;;;;2.40;1.50;;;;;;;16.35;31.49;101219.75;1639261;86;21680;-71
2022/04/29 11:02:49;;;;;;;3.80;0.78;;;;;;;16.43;31.69;101213.34;1639776;86;22583;-71
2022/04/29 11:05:37;;;;;;;1.60;0.60;;;;;;;16.59;31.81;101216.13;1639571;86;21147;-72
2022/04/29 11:08:10;;;;;;;;;;;;;;;16.64;30.95;101205.05;1676775;84;21177;-73
2022/04/29 11:10:58;;;;;;;3.10;0.78;;;;;;;16.63;30.90;101206.60;1707707;82;20132;-73
2022/04/29 11:13:30;;;;;;;1.10;0.57;;;;;;;16.61;31.23;101209.49;1661210;84;21058;-72
2022/04/29 11:16:13;;;;;;;0.30;0.20;;;;;;;16.69;30.56;101219.25;1729107;82;21103;-71
2022/04/29 11:19:21;;;;;;;0.55;0.55;;;;;;;16.68;30.50;101208.16;1730707;82;21053;-72
2022/04/29 11:24:48;;;;;;;0.65;0.42;;;;;;;16.64;30.88;101206.92;1726389;82;21102;-71
2022/04/29 11:27:27;;;;;;;0.50;0.20;;;;;;;16.71;30.87;101203.72;1691406;82;21001;-72
2022/04/29 11:30:02;;;;;;;0.95;0.42;;;;;;;16.77;30.98;101200.72;1708468;82;21030;-71
2022/04/29 11:32:39;;;;;;;0.88;0.42;;;;;;;16.83;31.00;101200.72;1616572;87;21041;-72
2022/04/29 11:35:05;;;;;;;0.37;0.20;;;;;;;16.90;30.16;101200.20;1698126;82;21002;-72
2022/04/29 11:37:35;;;;;;;1.67;0.50;;;;;;;16.89;30.51;101200.41;1703643;82;21130;-72
2022/04/29 11:40:08;;;;;;;3.12;0.35;;;;;;;16.82;30.47;101197.73;1664689;84;21097;-72
2022/04/29 11:42:35;;;;;;;1.30;0.30;;;;;;;16.77;30.35;101206.92;1666719;84;22011;-71
2022/04/29 11:45:07;;;;;;;0.95;0.30;;;;;;;16.74;30.62;101197.91;1640239;86;21058;-71
2022/04/29 11:47:36;;;;;;;1.00;0.40;;;;;;;16.74;30.43;101191.17;1672129;84;21067;-71
2022/04/29 11:50:06;;;;;;;1.95;0.20;;;;;;;16.76;30.22;101190.97;1667752;84;21350;-71
2022/04/29 11:52:36;;;;;;;0.30;0.20;;;;;;;16.70;30.38;101180.52;1669585;84;21163;-73
2022/04/29 11:56:04;;;;;;;1.37;0.40;;;;;;;16.69;31.09;101169.45;1769527;78;22496;-72
2022/04/29 11:58:32;;;;;;;0.40;0.37;;;;;;;16.69;31.15;101175.66;1708487;82;21081;-73
2022/04/29 12:00:59;;;;;;;1.07;0.40;;;;;;;16.78;31.03;101164.13;1723835;82;21017;-72
2022/04/29 12:03:25;;;;;;;0.80;0.55;;;;;;;16.85;30.68;101165.52;1733355;82;21041;-72
2022/04/29 12:05:52;;;;;;;0.80;0.28;;;;;;;16.92;30.06;101156.39;1733279;83;21073;-72
2022/04/29 12:08:20;;;;;;;0.78;0.40;;;;;;;16.88;30.50;101164.58;1732100;82;22181;-72
2022/04/29 12:10:51;;;;;;;2.17;0.30;;;;;;;16.85;30.45;101156.09;1712825;82;21109;-72